createdAt,value
2019-03-26T00:00:52.899Z,13.37
2019-03-26T00:03:23.765Z,12.23
2019-03-26T00:05:54.705Z,14.53
2019-03-26T00:08:25.640Z,10.67
2019-03-26T00:10:56.518Z,10.70
2019-03-26T00:13:27.445Z,11.90
2019-03-26T00:15:58.289Z,12.50
2019-03-26T00:18:29.291Z,13.60
2019-03-26T00:21:00.194Z,9.70
2019-03-26T00:23:31.152Z,13.57
2019-03-26T00:26:02.028Z,10.60
2019-03-26T00:28:32.903Z,12.10
2019-03-26T00:31:03.784Z,9.53
2019-03-26T00:33:36.742Z,12.37
2019-03-26T00:36:09.101Z,9.27
2019-03-26T00:38:40.308Z,9.20
2019-03-26T00:41:11.132Z,10.30
2019-03-26T00:43:41.988Z,9.27
2019-03-26T00:46:12.833Z,11.53
2019-03-26T00:48:43.706Z,10.53
2019-03-26T00:51:14.693Z,12.67
2019-03-26T00:53:45.565Z,9.90
2019-03-26T00:56:16.363Z,12.03
2019-03-26T00:58:47.213Z,9.47
2019-03-26T01:01:18.252Z,9.73
2019-03-26T01:03:49.089Z,11.43
2019-03-26T01:06:19.997Z,13.20
2019-03-26T01:08:50.861Z,11.43
2019-03-26T01:11:21.737Z,14.17
2019-03-26T01:13:52.638Z,10.40
2019-03-26T01:16:23.478Z,12.10
2019-03-26T01:18:54.332Z,10.57
2019-03-26T01:21:25.182Z,10.73
2019-03-26T01:23:56.049Z,12.87
2019-03-26T01:26:26.913Z,14.33
2019-03-26T01:28:57.777Z,13.93
2019-03-26T01:31:28.625Z,12.87
2019-03-26T01:33:59.508Z,11.90
2019-03-26T01:36:30.409Z,17.00
2019-03-26T01:39:01.289Z,11.77
2019-03-26T01:41:32.129Z,12.90
2019-03-26T01:44:03.005Z,16.97
2019-03-26T01:46:33.931Z,14.20
2019-03-26T01:49:04.875Z,11.93
2019-03-26T01:51:35.849Z,11.00
2019-03-26T01:54:06.713Z,11.50
2019-03-26T01:56:37.655Z,13.30
2019-03-26T01:59:08.509Z,13.27
2019-03-26T02:01:39.499Z,14.53
2019-03-26T02:04:10.437Z,12.63
2019-03-26T02:06:43.397Z,17.37
2019-03-26T02:09:14.269Z,15.80
2019-03-26T02:11:45.130Z,11.70
2019-03-26T02:14:16.054Z,17.27
2019-03-26T02:16:48.378Z,12.53
2019-03-26T02:19:19.311Z,11.47
2019-03-26T02:21:50.169Z,11.10
2019-03-26T02:24:21.074Z,10.83
2019-03-26T02:26:51.913Z,13.67
2019-03-26T02:29:22.790Z,13.60
2019-03-26T02:31:53.819Z,12.17
2019-03-26T02:34:24.689Z,12.87
2019-03-26T02:36:55.533Z,12.77
2019-03-26T02:39:26.420Z,10.73
2019-03-26T02:41:57.258Z,15.53
2019-03-26T02:44:28.145Z,14.43
2019-03-26T02:46:58.980Z,12.23
2019-03-26T02:49:29.975Z,12.10
2019-03-26T02:52:00.826Z,12.20
2019-03-26T02:54:31.788Z,12.53
2019-03-26T02:59:17.984Z,9.53
2019-03-26T03:01:49.048Z,14.90
2019-03-26T03:04:20.054Z,12.47
2019-03-26T03:06:50.949Z,13.67
2019-03-26T03:09:21.882Z,6.77
2019-03-26T03:11:52.786Z,13.07
2019-03-26T03:14:23.685Z,10.97
2019-03-26T03:16:54.590Z,12.43
2019-03-26T03:19:25.517Z,12.33
2019-03-26T03:21:56.422Z,10.23
2019-03-26T03:24:27.365Z,13.37
2019-03-26T03:27:00.341Z,13.77
2019-03-26T03:29:31.114Z,9.57
2019-03-26T03:32:02.027Z,8.90
2019-03-26T03:34:34.631Z,12.53
2019-03-26T03:37:05.137Z,8.80
2019-03-26T03:39:37.618Z,8.37
2019-03-26T03:42:09.295Z,10.20
2019-03-26T03:44:40.550Z,10.27
2019-03-26T03:47:13.714Z,8.70
2019-03-26T03:49:44.932Z,9.67
2019-03-26T03:52:17.869Z,9.80
2019-03-26T03:54:49.961Z,10.50
2019-03-26T03:57:23.462Z,9.37
2019-03-26T03:59:56.243Z,7.83
2019-03-26T04:02:27.182Z,9.73
2019-03-26T04:04:58.039Z,10.43
2019-03-26T04:07:28.880Z,8.77
2019-03-26T04:09:59.751Z,9.83
2019-03-26T04:12:30.649Z,9.97
2019-03-26T04:15:01.627Z,11.33
2019-03-26T04:17:32.510Z,10.17
2019-03-26T04:20:03.409Z,7.83
2019-03-26T04:22:34.383Z,10.47
2019-03-26T04:25:05.528Z,15.03
2019-03-26T04:27:39.023Z,9.77
2019-03-26T04:30:10.645Z,11.60
2019-03-26T04:32:41.545Z,10.50
2019-03-26T04:35:12.463Z,16.37
2019-03-26T04:37:43.310Z,13.57
2019-03-26T04:40:14.192Z,10.13
2019-03-26T04:42:45.018Z,10.07
2019-03-26T04:45:15.921Z,9.70
2019-03-26T04:47:46.770Z,7.83
2019-03-26T04:50:17.602Z,7.93
2019-03-26T04:52:48.605Z,10.57
2019-03-26T04:55:19.448Z,7.13
2019-03-26T04:57:50.328Z,6.33
2019-03-26T05:00:21.495Z,9.03
2019-03-26T05:02:52.324Z,7.17
2019-03-26T05:05:23.246Z,7.50
2019-03-26T05:07:54.034Z,8.27
2019-03-26T05:10:25.081Z,8.13
2019-03-26T05:12:55.920Z,10.50
2019-03-26T05:15:26.874Z,7.90
2019-03-26T05:17:57.720Z,8.40
2019-03-26T05:20:28.553Z,8.03
2019-03-26T05:22:59.397Z,7.80
2019-03-26T05:25:30.310Z,11.67
2019-03-26T05:28:01.149Z,7.60
2019-03-26T05:30:33.261Z,8.77
2019-03-26T05:33:04.222Z,8.10
2019-03-26T05:35:35.067Z,12.53
2019-03-26T05:38:05.910Z,8.30
2019-03-26T05:40:37.041Z,8.57
2019-03-26T05:45:30.037Z,9.43
2019-03-26T05:48:00.886Z,10.00
2019-03-26T05:50:31.729Z,6.30
2019-03-26T05:53:02.569Z,10.83
2019-03-26T05:55:33.438Z,10.27
2019-03-26T05:58:04.349Z,8.97
2019-03-26T06:00:35.193Z,4.27
2019-03-26T06:03:06.085Z,8.53
2019-03-26T06:05:38.193Z,5.67
2019-03-26T06:08:09.050Z,6.47
2019-03-26T06:10:40.481Z,6.10
2019-03-26T06:13:11.317Z,7.50
2019-03-26T06:15:42.190Z,9.67
2019-03-26T06:18:13.032Z,8.03
2019-03-26T06:20:43.909Z,10.23
2019-03-26T06:23:14.881Z,9.97
2019-03-26T06:25:45.730Z,8.83
2019-03-26T06:28:16.814Z,7.70
2019-03-26T06:30:47.694Z,8.13
2019-03-26T06:33:18.591Z,7.53
2019-03-26T06:35:49.553Z,6.07
2019-03-26T06:38:20.433Z,8.87
2019-03-26T06:40:51.468Z,7.30
2019-03-26T06:43:22.381Z,5.90
2019-03-26T06:45:53.233Z,7.00
2019-03-26T06:48:24.105Z,4.93
2019-03-26T06:50:54.959Z,6.57
2019-03-26T06:53:27.034Z,4.97
2019-03-26T06:55:57.889Z,7.83
2019-03-26T06:58:28.754Z,6.43
2019-03-26T07:00:59.604Z,9.13
2019-03-26T07:03:30.586Z,5.03
2019-03-26T07:06:01.581Z,8.57
2019-03-26T07:08:32.458Z,7.10
2019-03-26T07:11:04.401Z,5.87
2019-03-26T07:13:35.337Z,10.13
2019-03-26T07:16:06.190Z,8.57
2019-03-26T07:18:37.085Z,9.77
2019-03-26T07:21:08.314Z,5.77
2019-03-26T07:23:39.958Z,3.67
2019-03-26T07:26:10.797Z,9.47
2019-03-26T07:28:42.300Z,7.43
2019-03-26T07:31:13.164Z,8.60
2019-03-26T07:33:43.981Z,4.53
2019-03-26T07:36:14.831Z,6.47
2019-03-26T07:38:46.857Z,5.17
2019-03-26T07:41:17.725Z,5.83
2019-03-26T07:43:48.560Z,7.60
2019-03-26T07:46:19.420Z,6.90
2019-03-26T07:48:50.327Z,6.77
2019-03-26T07:51:21.176Z,4.33
2019-03-26T07:53:52.004Z,5.87
2019-03-26T07:56:22.868Z,7.37
2019-03-26T07:58:53.801Z,9.97
2019-03-26T08:01:24.717Z,9.60
2019-03-26T08:03:55.597Z,8.63
2019-03-26T08:06:36.710Z,6.67
2019-03-26T08:09:08.003Z,9.57
2019-03-26T08:11:39.038Z,7.43
2019-03-26T08:14:09.905Z,10.13
2019-03-26T08:16:40.793Z,13.60
2019-03-26T08:19:11.678Z,9.53
2019-03-26T08:21:42.525Z,10.23
2019-03-26T08:24:13.572Z,10.00
2019-03-26T08:26:44.471Z,2.67
2019-03-26T08:29:15.269Z,7.40
2019-03-26T08:31:46.126Z,6.43
2019-03-26T08:34:16.982Z,9.00
2019-03-26T08:36:47.818Z,9.43
2019-03-26T08:39:18.650Z,5.73
2019-03-26T08:41:49.490Z,5.77
2019-03-26T08:44:20.380Z,7.20
2019-03-26T08:46:51.295Z,7.47
2019-03-26T08:49:22.141Z,6.50
2019-03-26T08:51:52.972Z,7.73
2019-03-26T08:54:24.001Z,6.43
2019-03-26T08:56:54.864Z,13.97
2019-03-26T08:59:25.780Z,7.43
2019-03-26T09:01:56.629Z,4.67
2019-03-26T09:04:27.589Z,6.80
2019-03-26T09:06:58.450Z,6.87
2019-03-26T09:09:29.448Z,10.50
2019-03-26T09:12:00.317Z,10.50
2019-03-26T09:14:31.154Z,5.80
2019-03-26T09:17:02.013Z,6.47
2019-03-26T09:19:32.903Z,6.57
2019-03-26T09:22:03.856Z,5.73
2019-03-26T09:24:34.700Z,6.60
2019-03-26T09:27:05.546Z,9.43
2019-03-26T09:29:36.425Z,9.57
2019-03-26T09:32:06.853Z,7.37
2019-03-26T09:34:37.805Z,7.57
2019-03-26T09:37:08.659Z,4.43
2019-03-26T09:39:39.598Z,7.57
2019-03-26T09:42:10.505Z,5.30
2019-03-26T09:44:43.385Z,7.30
2019-03-26T09:47:16.580Z,7.83
2019-03-26T09:49:46.648Z,6.57
2019-03-26T09:52:17.577Z,6.93
2019-03-26T09:54:49.386Z,6.90
2019-03-26T09:57:20.217Z,7.83
2019-03-26T09:59:51.122Z,6.67
2019-03-26T10:02:22.001Z,10.73
2019-03-26T10:04:52.944Z,7.77
2019-03-26T10:07:23.766Z,7.67
2019-03-26T10:09:54.626Z,6.50
2019-03-26T10:12:25.478Z,9.97
2019-03-26T10:14:56.457Z,4.50
2019-03-26T10:17:27.293Z,6.30
2019-03-26T10:19:58.220Z,7.37
2019-03-26T10:22:29.053Z,6.57
2019-03-26T10:24:59.916Z,5.03
2019-03-26T10:27:30.753Z,7.73
2019-03-26T10:30:01.596Z,8.27
2019-03-26T10:32:32.760Z,7.03
2019-03-26T10:35:04.037Z,4.13
2019-03-26T10:37:35.226Z,8.23
2019-03-26T10:40:07.267Z,6.93
2019-03-26T10:42:38.903Z,2.70
2019-03-26T10:45:10.036Z,4.23
2019-03-26T10:47:42.353Z,4.63
2019-03-26T10:50:13.194Z,6.63
2019-03-26T10:52:44.133Z,5.60
2019-03-26T10:55:15.057Z,11.53
2019-03-26T10:57:45.922Z,6.53
2019-03-26T11:00:18.001Z,4.23
2019-03-26T11:02:48.881Z,5.87
2019-03-26T11:05:19.853Z,7.97
2019-03-26T11:07:50.723Z,4.90
2019-03-26T11:10:21.949Z,7.63
2019-03-26T11:12:52.893Z,5.97
2019-03-26T11:15:23.694Z,3.53
2019-03-26T11:17:54.585Z,6.20
2019-03-26T11:20:25.764Z,9.50
2019-03-26T11:22:56.771Z,6.97
2019-03-26T11:25:27.641Z,6.10
2019-03-26T11:27:58.821Z,4.07
2019-03-26T11:30:29.701Z,4.47
2019-03-26T11:33:00.840Z,8.03
2019-03-26T11:35:31.681Z,5.77
2019-03-26T11:38:38.893Z,5.53
2019-03-26T11:41:09.945Z,5.90
2019-03-26T11:44:05.049Z,5.17
2019-03-26T11:46:35.567Z,5.73
2019-03-26T11:49:06.581Z,9.53
2019-03-26T11:51:37.546Z,7.03
2019-03-26T11:54:08.714Z,8.37
2019-03-26T11:56:39.613Z,5.33
2019-03-26T11:59:10.465Z,4.30
2019-03-26T12:01:41.316Z,6.13
2019-03-26T12:04:18.264Z,7.27
2019-03-26T12:06:49.170Z,5.87
2019-03-26T12:09:20.001Z,4.90
2019-03-26T12:11:50.837Z,7.17
2019-03-26T12:14:21.701Z,6.97
2019-03-26T12:16:52.665Z,4.23
2019-03-26T12:19:23.477Z,2.83
2019-03-26T12:21:54.317Z,4.77
2019-03-26T12:24:25.328Z,4.57
2019-03-26T12:26:56.130Z,4.57
2019-03-26T12:29:26.989Z,7.10
2019-03-26T12:31:59.417Z,7.07
2019-03-26T12:34:30.248Z,5.13
2019-03-26T12:37:01.120Z,4.57
2019-03-26T12:39:31.962Z,6.43
2019-03-26T12:42:03.038Z,3.77
2019-03-26T12:44:33.893Z,5.60
2019-03-26T12:47:04.858Z,3.03
2019-03-26T12:49:36.379Z,3.77
2019-03-26T12:52:06.783Z,5.33
2019-03-26T12:54:38.015Z,3.63
2019-03-26T12:57:09.006Z,2.47
2019-03-26T12:59:40.008Z,4.07
2019-03-26T13:02:10.910Z,3.47
2019-03-26T13:04:41.809Z,7.33
2019-03-26T13:07:12.674Z,5.30
2019-03-26T13:09:43.628Z,6.87
2019-03-26T13:12:14.546Z,4.77
2019-03-26T13:14:45.477Z,2.40
2019-03-26T13:17:18.305Z,5.33
2019-03-26T13:19:49.265Z,3.43
2019-03-26T13:22:21.389Z,4.40
2019-03-26T13:24:52.511Z,7.57
2019-03-26T13:27:23.590Z,6.43
2019-03-26T13:29:54.736Z,4.07
2019-03-26T13:32:25.798Z,7.13
2019-03-26T13:34:56.739Z,3.90
2019-03-26T13:37:29.627Z,3.40
2019-03-26T13:40:00.495Z,8.33
2019-03-26T13:42:31.430Z,3.83
2019-03-26T13:45:02.336Z,4.17
2019-03-26T13:47:33.192Z,5.43
2019-03-26T13:50:04.207Z,5.77
2019-03-26T13:53:25.363Z,4.57
2019-03-26T13:55:57.724Z,6.87
2019-03-26T13:58:28.596Z,5.70
2019-03-26T14:01:37.072Z,5.60
2019-03-26T14:04:12.949Z,5.80
2019-03-26T14:06:45.865Z,7.23
2019-03-26T14:09:23.504Z,5.83
2019-03-26T14:11:57.785Z,8.80
2019-03-26T14:14:32.579Z,6.30
2019-03-26T14:17:05.778Z,5.60
2019-03-26T14:19:42.982Z,7.00
2019-03-26T14:22:18.138Z,8.70
2019-03-26T14:24:50.971Z,7.43
2019-03-26T14:27:23.406Z,7.67
2019-03-26T14:30:00.481Z,8.97
2019-03-26T14:32:32.750Z,6.63
2019-03-26T14:35:05.280Z,7.73
2019-03-26T14:37:50.652Z,7.27
2019-03-26T14:40:14.898Z,8.70
2019-03-26T14:42:47.523Z,8.83
2019-03-26T14:45:20.861Z,10.50
2019-03-26T14:47:54.400Z,9.20
2019-03-26T14:50:28.999Z,9.60
2019-03-26T14:53:02.901Z,9.30
2019-03-26T14:55:35.672Z,9.70
2019-03-26T14:58:13.280Z,8.13
2019-03-26T15:00:48.198Z,11.37
2019-03-26T15:03:21.006Z,7.30
2019-03-26T15:05:53.542Z,10.00
2019-03-26T15:08:28.236Z,7.87
2019-03-26T15:11:08.020Z,9.40
2019-03-26T15:13:34.213Z,10.23
2019-03-26T15:16:05.114Z,10.40
2019-03-26T15:18:36.110Z,8.73
2019-03-26T15:21:06.985Z,12.73
2019-03-26T15:23:38.532Z,9.30
2019-03-26T15:26:09.399Z,7.47
2019-03-26T15:28:40.633Z,6.00
2019-03-26T15:31:11.509Z,5.53
2019-03-26T15:33:42.343Z,7.80
2019-03-26T15:36:13.210Z,4.40
2019-03-26T15:38:44.251Z,6.53
2019-03-26T15:41:21.494Z,6.00
2019-03-26T15:43:47.611Z,7.57
2019-03-26T15:46:19.469Z,7.37
2019-03-26T15:48:50.305Z,6.27
2019-03-26T15:51:21.656Z,5.37
2019-03-26T15:53:52.528Z,5.90
2019-03-26T15:56:23.386Z,6.57
2019-03-26T15:58:57.374Z,7.93
2019-03-26T16:01:28.501Z,4.93
2019-03-26T16:03:59.338Z,6.83
2019-03-26T16:06:32.122Z,7.07
2019-03-26T16:09:03.191Z,6.63
2019-03-26T16:11:36.159Z,7.50
2019-03-26T16:14:06.981Z,8.37
2019-03-26T16:16:41.313Z,8.67
2019-03-26T16:19:12.345Z,6.97
2019-03-26T16:21:43.333Z,8.90
2019-03-26T16:24:14.390Z,8.57
2019-03-26T16:26:45.461Z,6.20
2019-03-26T16:29:16.367Z,7.40
2019-03-26T16:31:47.346Z,4.90
2019-03-26T16:34:18.484Z,6.33
2019-03-26T16:36:59.495Z,9.73
2019-03-26T16:39:21.864Z,6.83
2019-03-26T16:41:52.701Z,5.17
2019-03-26T16:44:23.781Z,6.33
2019-03-26T16:46:54.654Z,7.37
2019-03-26T16:49:25.625Z,8.23
2019-03-26T16:51:56.559Z,7.73
2019-03-26T16:54:27.454Z,8.20
2019-03-26T16:56:58.294Z,5.47
2019-03-26T16:59:29.192Z,6.70
2019-03-26T17:02:00.109Z,7.00
2019-03-26T17:04:30.953Z,5.53
2019-03-26T17:07:01.833Z,5.20
2019-03-26T17:09:34.568Z,7.07
2019-03-26T17:12:06.688Z,5.57
2019-03-26T17:14:39.419Z,6.13
2019-03-26T17:17:10.350Z,7.07
2019-03-26T17:19:41.205Z,5.00
2019-03-26T17:22:12.125Z,7.03
2019-03-26T17:24:43.209Z,5.73
2019-03-26T17:27:14.065Z,9.87
2019-03-26T17:29:44.989Z,8.73
2019-03-26T17:32:15.893Z,9.37
2019-03-26T17:34:46.754Z,9.07
2019-03-26T17:37:17.658Z,7.30
2019-03-26T17:39:50.890Z,13.73
2019-03-26T17:42:24.188Z,6.20
2019-03-26T17:44:58.539Z,13.13
2019-03-26T17:47:31.053Z,8.70
2019-03-26T17:50:05.798Z,7.43
2019-03-26T17:52:42.403Z,11.73
2019-03-26T17:55:14.671Z,8.63
2019-03-26T17:57:47.918Z,10.23
2019-03-26T18:00:24.239Z,6.40
2019-03-26T18:02:56.568Z,8.00
2019-03-26T18:05:53.316Z,9.77
2019-03-26T18:08:24.358Z,11.27
2019-03-26T18:10:55.267Z,7.73
2019-03-26T18:13:27.780Z,6.50
2019-03-26T18:16:01.964Z,8.73
2019-03-26T18:18:35.234Z,8.57
2019-03-26T18:21:11.671Z,8.67
2019-03-26T18:23:43.367Z,6.73
2019-03-26T18:26:16.349Z,11.30
2019-03-26T18:28:50.610Z,8.70
2019-03-26T18:31:22.321Z,6.93
2019-03-26T18:33:53.214Z,7.50
2019-03-26T18:36:24.224Z,9.13
2019-03-26T18:38:55.189Z,11.03
2019-03-26T18:41:26.213Z,7.13
2019-03-26T18:43:57.500Z,7.90
2019-03-26T18:46:28.397Z,9.10
2019-03-26T18:48:59.239Z,8.43
2019-03-26T18:51:30.104Z,7.67
2019-03-26T18:54:00.953Z,6.40
2019-03-26T18:56:31.876Z,9.80
2019-03-26T18:59:02.800Z,9.13
2019-03-26T19:01:33.714Z,7.97
2019-03-26T19:04:04.694Z,6.60
2019-03-26T19:06:35.514Z,8.00
2019-03-26T19:09:07.923Z,9.37
2019-03-26T19:11:39.080Z,9.23
2019-03-26T19:14:09.922Z,11.33
2019-03-26T19:16:41.124Z,10.67
2019-03-26T19:19:12.791Z,12.33
2019-03-26T19:21:44.195Z,10.30
2019-03-26T19:24:15.070Z,10.57
2019-03-26T19:26:45.888Z,7.90
2019-03-26T19:29:16.739Z,9.93
2019-03-26T19:31:47.659Z,9.53
2019-03-26T19:34:18.485Z,6.80
2019-03-26T19:36:49.318Z,9.40
2019-03-26T19:39:20.161Z,15.20
2019-03-26T19:41:51.123Z,10.40
2019-03-26T19:44:21.974Z,6.93
2019-03-26T19:46:52.860Z,10.83
2019-03-26T19:49:24.746Z,11.87
2019-03-26T19:51:56.324Z,10.17
2019-03-26T19:54:27.128Z,9.80
2019-03-26T19:56:59.198Z,10.50
2019-03-26T19:59:32.378Z,10.90
2019-03-26T20:02:03.229Z,10.70
2019-03-26T20:04:34.377Z,8.73
2019-03-26T20:07:06.354Z,9.47
2019-03-26T20:09:38.984Z,9.20
2019-03-26T20:12:11.422Z,8.53
2019-03-26T20:14:42.777Z,11.47
2019-03-26T20:17:13.786Z,10.70
2019-03-26T20:19:44.657Z,12.70
2019-03-26T20:22:15.790Z,10.17
2019-03-26T20:24:46.709Z,14.37
2019-03-26T20:27:17.582Z,12.40
2019-03-26T20:29:48.506Z,9.50
2019-03-26T20:32:19.424Z,9.30
2019-03-26T20:34:49.941Z,11.33
2019-03-26T20:37:20.806Z,14.27
2019-03-26T20:39:51.676Z,11.97
2019-03-26T20:42:23.721Z,12.07
2019-03-26T20:44:54.698Z,13.13
2019-03-26T20:47:25.546Z,10.83
2019-03-26T20:49:56.485Z,16.83
2019-03-26T20:52:27.424Z,13.40
2019-03-26T20:54:58.259Z,15.20
2019-03-26T20:57:29.306Z,12.70
2019-03-26T21:00:00.409Z,12.77
2019-03-26T21:02:31.313Z,12.20
2019-03-26T21:05:02.323Z,15.43
2019-03-26T21:07:34.701Z,14.77
2019-03-26T21:10:07.158Z,12.17
2019-03-26T21:12:38.170Z,15.97
2019-03-26T21:15:10.240Z,17.30
2019-03-26T21:17:41.202Z,12.33
2019-03-26T21:20:12.410Z,14.00
2019-03-26T21:22:43.325Z,12.77
2019-03-26T21:25:14.550Z,13.47
2019-03-26T21:27:45.410Z,13.10
2019-03-26T21:30:16.431Z,14.10
2019-03-26T21:32:47.294Z,12.93
2019-03-26T21:35:18.304Z,13.53
2019-03-26T21:37:50.360Z,12.83
2019-03-26T21:40:21.566Z,12.17
2019-03-26T21:42:53.865Z,13.13
2019-03-26T21:45:39.049Z,11.10
2019-03-26T21:48:10.255Z,11.30
2019-03-26T21:50:41.754Z,14.93
2019-03-26T21:53:12.583Z,13.10
2019-03-26T21:55:43.494Z,14.67
2019-03-26T21:58:14.328Z,9.90
2019-03-26T22:00:47.706Z,9.20
2019-03-26T22:03:18.554Z,15.83
2019-03-26T22:05:49.448Z,11.27
2019-03-26T22:08:20.413Z,8.33
2019-03-26T22:10:51.296Z,12.93
2019-03-26T22:13:22.124Z,13.70
2019-03-26T22:15:53.041Z,11.77
2019-03-26T22:18:23.926Z,13.47
2019-03-26T22:20:54.892Z,9.40
2019-03-26T22:23:25.737Z,12.43
2019-03-26T22:25:56.602Z,14.07
2019-03-26T22:28:27.486Z,10.13
2019-03-26T22:30:58.375Z,14.70
2019-03-26T22:33:29.261Z,13.73
2019-03-26T22:36:00.162Z,16.10
2019-03-26T22:38:31.056Z,15.27
2019-03-26T22:41:03.043Z,11.03
2019-03-26T22:43:34.750Z,16.77
2019-03-26T22:46:05.646Z,11.87
2019-03-26T22:48:36.477Z,10.17
2019-03-26T22:51:06.893Z,16.13
2019-03-26T22:53:38.248Z,12.87
2019-03-26T22:56:09.203Z,18.23
2019-03-26T22:58:40.484Z,11.83
2019-03-26T23:01:13.089Z,13.67
2019-03-26T23:03:44.038Z,9.60
2019-03-26T23:06:14.906Z,11.03
2019-03-26T23:08:45.791Z,12.60
2019-03-26T23:11:16.744Z,10.07
2019-03-26T23:13:47.634Z,9.77
2019-03-26T23:16:18.502Z,12.60
2019-03-26T23:18:49.429Z,10.13
2019-03-26T23:21:20.531Z,10.17
2019-03-26T23:23:51.517Z,10.13
2019-03-26T23:26:22.424Z,14.73
2019-03-26T23:28:53.310Z,15.80
2019-03-26T23:31:24.241Z,10.40
2019-03-26T23:33:55.126Z,13.37
2019-03-26T23:36:26.098Z,19.27
2019-03-26T23:38:56.944Z,13.67
2019-03-26T23:41:27.861Z,14.70
2019-03-26T23:44:00.075Z,13.30
2019-03-26T23:46:30.999Z,17.53
2019-03-26T23:49:01.955Z,12.23
2019-03-26T23:51:32.814Z,15.27
2019-03-26T23:54:03.748Z,12.10
2019-03-26T23:56:34.671Z,12.40
2019-03-26T23:59:05.820Z,12.27
